Time;durP1;ratioP1;P1;durP2;ratioP2;P2;SDS_P1;SDS_P2;PMS_P1;PMS_P2;Temp;Humidity;BMP_temperature;BMP_pressure;BME280_temperature;BME280_humidity;BME280_pressure;Samples;Min_cycle;Max_cycle;Signal;HPM_P1;HPM_P2
2022/03/09 00:00:08;;;;;;;17.65;12.40;;;;;;;-3.24;100.00;100731.09;1751061;82;21233;-81
2022/03/09 00:02:37;;;;;;;19.77;11.45;;;;;;;-3.26;100.00;100726.48;1751182;82;21116;-81
2022/03/09 00:05:05;;;;;;;15.85;11.10;;;;;;;-3.26;100.00;100726.89;1718211;81;21089;-81
2022/03/09 00:07:32;;;;;;;19.10;13.53;;;;;;;-3.28;100.00;100724.80;1716235;81;20995;-83
2022/03/09 00:09:59;;;;;;;20.02;11.65;;;;;;;-3.31;100.00;100728.23;1716359;81;21176;-81
2022/03/09 00:12:26;;;;;;;18.98;13.55;;;;;;;-3.33;100.00;100732.54;1715942;80;21253;-81
2022/03/09 00:14:53;;;;;;;18.92;12.13;;;;;;;-3.34;100.00;100725.76;1716437;82;20983;-81
2022/03/09 00:17:19;;;;;;;20.15;13.10;;;;;;;-3.36;100.00;100727.03;1716204;83;21074;-81
2022/03/09 00:19:47;;;;;;;18.20;12.63;;;;;;;-3.37;100.00;100721.98;1716577;82;21062;-82
2022/03/09 00:22:15;;;;;;;19.07;12.85;;;;;;;-3.36;100.00;100718.56;1716251;81;21038;-81
2022/03/09 00:24:44;;;;;;;19.92;14.18;;;;;;;-3.34;100.00;100714.30;1716175;82;21941;-81
2022/03/09 00:27:10;;;;;;;20.02;14.50;;;;;;;-3.34;100.00;100713.03;1716472;81;21045;-82
2022/03/09 00:29:37;;;;;;;19.55;13.70;;;;;;;-3.34;100.00;100712.58;1716081;81;21528;-81
2022/03/09 00:32:06;;;;;;;20.90;14.45;;;;;;;-3.32;100.00;100713.82;1716603;81;21313;-81
2022/03/09 00:34:34;;;;;;;21.23;13.78;;;;;;;-3.31;100.00;100718.05;1716090;83;21065;-81
2022/03/09 00:37:01;;;;;;;21.15;14.65;;;;;;;-3.30;100.00;100716.36;1716312;83;21125;-81
2022/03/09 00:39:28;;;;;;;21.45;14.50;;;;;;;-3.30;100.00;100716.36;1716037;81;21116;-81
2022/03/09 00:41:55;;;;;;;22.73;15.10;;;;;;;-3.29;100.00;100720.15;1715954;83;21094;-81
2022/03/09 00:44:22;;;;;;;22.02;15.70;;;;;;;-3.33;100.00;100712.98;1716351;81;21440;-82
2022/03/09 00:46:49;;;;;;;19.95;14.73;;;;;;;-3.36;100.00;100716.02;1716224;81;21136;-81
2022/03/09 00:49:16;;;;;;;26.17;15.60;;;;;;;-3.39;100.00;100711.82;1716233;81;21214;-81
2022/03/09 00:51:43;;;;;;;25.62;16.65;;;;;;;-3.41;100.00;100709.72;1716337;81;22143;-80
2022/03/09 00:54:10;;;;;;;29.75;17.10;;;;;;;-3.42;100.00;100718.67;1716358;81;21151;-81
2022/03/09 00:56:37;;;;;;;27.80;16.85;;;;;;;-3.45;100.00;100714.88;1716240;81;21456;-80
2022/03/09 00:59:04;;;;;;;27.60;17.20;;;;;;;-3.45;100.00;100721.25;1715360;82;21992;-81
2022/03/09 01:01:33;;;;;;;28.05;19.00;;;;;;;-3.48;100.00;100708.14;1752254;81;21752;-81
2022/03/09 01:03:59;;;;;;;31.50;18.73;;;;;;;-3.50;100.00;100719.63;1757504;81;21650;-85
2022/03/09 01:06:29;;;;;;;30.05;19.37;;;;;;;-3.52;100.00;100711.17;1763132;81;21262;-81
2022/03/09 01:08:57;;;;;;;30.82;20.12;;;;;;;-3.51;100.00;100714.13;1762714;81;21078;-81
2022/03/09 01:11:24;;;;;;;32.53;21.73;;;;;;;-3.49;100.00;100714.95;1763522;81;21094;-82
2022/03/09 01:13:53;;;;;;;34.63;21.33;;;;;;;-3.49;100.00;100713.68;1763045;80;21114;-82
2022/03/09 01:16:20;;;;;;;33.45;21.45;;;;;;;-3.50;100.00;100719.63;1763117;81;21501;-81
2022/03/09 01:18:49;;;;;;;36.75;21.80;;;;;;;-3.49;100.00;100720.46;1763030;80;21036;-82
2022/03/09 01:21:16;;;;;;;29.72;19.60;;;;;;;-3.49;100.00;100721.32;1755730;81;21020;-82
2022/03/09 01:23:43;;;;;;;31.87;20.97;;;;;;;-3.50;100.00;100718.36;1763376;81;21011;-83
2022/03/09 01:26:09;;;;;;;32.40;21.30;;;;;;;-3.50;100.00;100720.91;1763331;81;21359;-83
2022/03/09 01:28:36;;;;;;;32.17;21.20;;;;;;;-3.50;100.00;100722.17;1762878;81;21039;-81
2022/03/09 01:31:02;;;;;;;35.90;23.92;;;;;;;-3.50;100.00;100720.91;1762761;81;21091;-81
2022/03/09 01:33:29;;;;;;;35.25;20.62;;;;;;;-3.51;100.00;100716.67;1763038;81;21011;-80
2022/03/09 01:35:56;;;;;;;31.90;20.05;;;;;;;-3.52;100.00;100720.08;1763530;81;21094;-82
2022/03/09 01:38:23;;;;;;;34.80;22.95;;;;;;;-3.54;100.00;100715.88;1762759;81;21787;-80
2022/03/09 01:40:52;;;;;;;36.45;23.92;;;;;;;-3.56;100.00;100715.05;1763407;81;21548;-81
2022/03/09 01:43:19;;;;;;;33.92;21.60;;;;;;;-3.57;100.00;100716.77;1755386;81;21049;-81
2022/03/09 01:45:46;;;;;;;37.42;23.27;;;;;;;-3.56;100.00;100718.87;1726523;82;21065;-80
2022/03/09 01:48:13;;;;;;;35.73;23.60;;;;;;;-3.57;100.00;100715.50;1726473;81;21052;-82
2022/03/09 01:50:41;;;;;;;34.03;20.65;;;;;;;-3.55;100.00;100720.55;1713281;81;21959;-81
2022/03/09 01:53:07;;;;;;;39.48;24.75;;;;;;;-3.55;100.00;100724.38;1756559;81;21569;-81
2022/03/09 01:55:34;;;;;;;36.90;22.25;;;;;;;-3.56;100.00;100724.79;1747206;80;21542;-80
2022/03/09 01:58:02;;;;;;;35.20;23.32;;;;;;;-3.56;100.00;100721.42;1756711;80;21601;-80
2022/03/09 02:00:30;;;;;;;38.75;24.18;;;;;;;-3.56;100.00;100727.34;1741190;80;21053;-81
2022/03/09 02:02:57;;;;;;;39.15;25.17;;;;;;;-3.55;100.00;100730.30;1726480;83;21879;-82
2022/03/09 02:05:24;;;;;;;37.88;24.43;;;;;;;-3.55;100.00;100730.30;1744853;80;21050;-82
2022/03/09 02:10:40;;;;;;;36.38;25.10;;;;;;;-3.52;100.00;100734.49;1749960;80;21002;-82
2022/03/09 02:13:09;;;;;;;37.70;24.47;;;;;;;-3.50;100.00;100736.18;1750229;82;21018;-82
2022/03/09 02:15:37;;;;;;;38.65;24.45;;;;;;;-3.49;100.00;100736.59;1750295;82;21273;-81
2022/03/09 02:18:05;;;;;;;40.05;26.07;;;;;;;-3.49;100.00;100736.59;1750338;80;21042;-81
2022/03/09 02:20:37;;;;;;;39.53;26.07;;;;;;;-3.47;100.00;100737.84;1750310;82;21049;-81
2022/03/09 02:23:04;;;;;;;36.45;23.20;;;;;;;-3.46;100.00;100739.52;1749799;82;21080;-82
2022/03/09 02:25:32;;;;;;;37.40;25.55;;;;;;;-3.46;100.00;100734.43;1750662;82;21080;-82
2022/03/09 02:28:01;;;;;;;36.42;23.20;;;;;;;-3.44;100.00;100738.22;1750835;82;21408;-87
2022/03/09 02:30:30;;;;;;;41.13;24.72;;;;;;;-3.44;100.00;100736.94;1742654;80;21567;-83
2022/03/09 02:32:57;;;;;;;34.92;23.35;;;;;;;-3.46;100.00;100731.88;1781492;80;21073;-81
2022/03/09 02:35:23;;;;;;;38.55;23.10;;;;;;;-3.47;100.00;100730.20;1781314;80;21034;-81
2022/03/09 02:37:50;;;;;;;39.92;24.40;;;;;;;-3.47;100.00;100723.83;1781431;80;21575;-82
2022/03/09 02:40:17;;;;;;;39.67;23.02;;;;;;;-3.47;100.00;100731.47;1781316;80;21206;-81
2022/03/09 02:42:45;;;;;;;42.48;26.65;;;;;;;-3.46;100.00;100733.16;1781216;80;21586;-82
2022/03/09 02:45:12;;;;;;;43.30;26.12;;;;;;;-3.47;100.00;100735.29;1781320;80;21590;-81
2022/03/09 02:47:41;;;;;;;42.88;27.95;;;;;;;-3.46;100.00;100738.66;1781078;80;21500;-82
2022/03/09 02:50:08;;;;;;;42.33;25.65;;;;;;;-3.45;100.00;100739.08;1777598;80;21586;-80
2022/03/09 02:52:41;;;;;;;41.95;26.37;;;;;;;-3.43;100.00;100739.90;1766712;80;22207;-81
2022/03/09 02:55:09;;;;;;;42.48;26.80;;;;;;;-3.43;100.00;100745.82;1736097;82;21066;-81
2022/03/09 02:57:36;;;;;;;45.70;27.95;;;;;;;-3.41;100.00;100748.37;1736776;81;20990;-82
2022/03/09 03:00:07;;;;;;;45.03;26.90;;;;;;;-3.40;100.00;100738.15;1736362;81;21042;-82
2022/03/09 03:02:37;;;;;;;42.03;25.02;;;;;;;-3.38;100.00;100741.94;1733811;82;21554;-81
2022/03/09 03:05:07;;;;;;;41.95;24.37;;;;;;;-3.38;100.00;100739.39;1712436;82;21472;-82
2022/03/09 03:07:35;;;;;;;45.38;27.32;;;;;;;-3.37;100.00;100746.17;1737951;81;21049;-82
2022/03/09 03:10:05;;;;;;;44.20;26.82;;;;;;;-3.37;100.00;100738.53;1736775;81;21022;-81
2022/03/09 03:12:34;;;;;;;45.08;25.37;;;;;;;-3.38;100.00;100744.48;1736770;82;21088;-81
2022/03/09 03:15:02;;;;;;;41.35;24.45;;;;;;;-3.39;100.00;100737.29;1736803;81;21056;-81
2022/03/09 03:17:36;;;;;;;44.88;25.57;;;;;;;-3.39;100.00;100743.66;1736665;81;21052;-82
2022/03/09 03:20:05;;;;;;;45.95;28.45;;;;;;;-3.38;100.00;100745.75;1734321;81;21100;-80
2022/03/09 03:22:34;;;;;;;41.27;25.70;;;;;;;-3.36;100.00;100740.22;1737156;81;21471;-81
2022/03/09 03:25:01;;;;;;;37.83;21.68;;;;;;;-3.36;100.00;100741.04;1737113;81;21029;-81
2022/03/09 03:27:27;;;;;;;41.45;24.82;;;;;;;-3.34;100.00;100743.59;1736868;81;21029;-81
2022/03/09 03:29:54;;;;;;;40.55;25.30;;;;;;;-3.34;100.00;100743.59;1738368;81;21692;-84
2022/03/09 03:32:21;;;;;;;44.40;26.50;;;;;;;-3.38;100.00;100740.25;1737075;81;21045;-81
2022/03/09 03:34:47;;;;;;;38.40;22.15;;;;;;;-3.39;100.00;100738.56;1736909;81;21552;-80
2022/03/09 03:37:14;;;;;;;44.27;25.23;;;;;;;-3.40;100.00;100736.88;1737009;81;21566;-83
2022/03/09 03:39:41;;;;;;;40.58;25.35;;;;;;;-3.42;100.00;100739.05;1737375;81;21092;-82
2022/03/09 03:42:08;;;;;;;41.25;25.88;;;;;;;-3.43;100.00;100734.81;1737259;81;21132;-82
2022/03/09 03:44:36;;;;;;;39.10;23.80;;;;;;;-3.45;100.00;100727.62;1736542;81;21076;-83
2022/03/09 03:47:04;;;;;;;43.13;24.15;;;;;;;-3.49;100.00;100722.59;1736435;81;21069;-81
2022/03/09 03:49:30;;;;;;;41.37;23.55;;;;;;;-3.53;100.00;100724.76;1737167;81;22010;-82
2022/03/09 03:52:00;;;;;;;39.60;24.70;;;;;;;-3.56;100.00;100726.51;1736996;81;20986;-81
2022/03/09 03:54:27;;;;;;;37.58;23.12;;;;;;;-3.59;100.00;100729.95;1737398;82;21802;-84
2022/03/09 03:56:54;;;;;;;39.42;22.98;;;;;;;-3.61;100.00;100726.58;1737143;82;21085;-85
2022/03/09 03:59:21;;;;;;;38.02;24.02;;;;;;;-3.63;100.00;100721.10;1736758;81;21437;-86
2022/03/09 04:01:48;;;;;;;38.05;23.60;;;;;;;-3.65;100.00;100727.50;1737154;81;21460;-84
2022/03/09 04:04:15;;;;;;;37.28;22.95;;;;;;;-3.67;100.00;100728.77;1737013;81;21036;-85
2022/03/09 04:06:41;;;;;;;40.95;23.12;;;;;;;-3.68;100.00;100735.16;1736835;81;21763;-86
2022/03/09 04:09:08;;;;;;;35.33;22.87;;;;;;;-3.71;100.00;100727.15;1737043;81;21037;-84
2022/03/09 04:11:35;;;;;;;38.17;23.90;;;;;;;-3.71;100.00;100731.38;1736830;81;21508;-84
2022/03/09 04:14:03;;;;;;;36.65;21.40;;;;;;;-3.72;100.00;100725.88;1737116;81;21420;-86
2022/03/09 04:16:32;;;;;;;39.50;23.73;;;;;;;-3.76;100.00;100733.16;1736647;81;21053;-82
2022/03/09 04:19:01;;;;;;;41.90;24.23;;;;;;;-3.80;100.00;100731.09;1736761;81;21273;-81
2022/03/09 04:21:28;;;;;;;41.63;24.27;;;;;;;-3.83;100.00;100734.94;1736403;81;21067;-82
2022/03/09 04:23:57;;;;;;;37.55;22.42;;;;;;;-3.85;100.00;100729.05;1737847;79;21061;-82
2022/03/09 04:26:23;;;;;;;40.25;22.73;;;;;;;-3.88;100.00;100726.09;1758671;80;21076;-82
2022/03/09 04:28:50;;;;;;;36.28;21.17;;;;;;;-3.91;100.00;100729.97;1767032;80;21072;-83
2022/03/09 04:31:18;;;;;;;40.80;25.45;;;;;;;-3.92;100.00;100733.36;1764935;80;21901;-83
2022/03/09 04:33:46;;;;;;;37.98;19.52;;;;;;;-3.93;100.00;100736.77;1767438;80;21025;-82
2022/03/09 04:36:14;;;;;;;41.75;25.43;;;;;;;-3.97;100.00;100737.69;1767389;80;21089;-82
2022/03/09 04:38:41;;;;;;;40.88;24.80;;;;;;;-4.00;100.00;100735.17;1767092;80;21064;-83
2022/03/09 04:41:08;;;;;;;45.30;24.90;;;;;;;-4.00;100.00;100737.71;1755064;80;21065;-82
2022/03/09 04:43:36;;;;;;;39.30;23.87;;;;;;;-4.04;100.00;100737.33;1766591;80;21127;-83
2022/03/09 04:46:03;;;;;;;43.80;26.42;;;;;;;-4.06;100.00;100737.80;1763575;79;21088;-84
2022/03/09 04:48:29;;;;;;;43.48;25.23;;;;;;;-4.08;100.00;100748.41;1737028;81;21022;-83
2022/03/09 04:50:57;;;;;;;42.95;26.17;;;;;;;-4.11;100.00;100746.75;1737059;81;21053;-84
2022/03/09 04:53:24;;;;;;;43.23;27.07;;;;;;;-4.13;100.00;100753.11;1746591;80;21077;-84
2022/03/09 04:55:51;;;;;;;35.78;20.70;;;;;;;-4.13;100.00;100752.28;1764661;79;21382;-84
2022/03/09 04:58:17;;;;;;;41.50;23.42;;;;;;;-4.15;100.00;100759.94;1740207;81;21183;-83
2022/03/09 05:00:46;;;;;;;43.48;26.23;;;;;;;-4.16;100.00;100754.84;1733338;81;21562;-83
2022/03/09 05:03:13;;;;;;;40.48;23.50;;;;;;;-4.16;100.00;100760.80;1767241;79;21010;-82
2022/03/09 05:05:39;;;;;;;42.93;25.30;;;;;;;-4.15;100.00;100759.08;1767289;80;21002;-85
2022/03/09 05:08:09;;;;;;;39.60;24.52;;;;;;;-4.14;100.00;100760.77;1766937;80;21068;-84
2022/03/09 05:10:37;;;;;;;45.08;23.73;;;;;;;-4.16;100.00;100760.80;1766301;79;21597;-83
2022/03/09 05:13:06;;;;;;;40.55;22.85;;;;;;;-4.15;100.00;100766.30;1766580;80;21483;-82
2022/03/09 05:15:33;;;;;;;45.08;26.40;;;;;;;-4.17;100.00;100769.73;1764292;80;21050;-84
2022/03/09 05:18:02;;;;;;;47.25;27.50;;;;;;;-4.20;100.00;100766.77;1741011;81;21534;-82
2022/03/09 05:20:29;;;;;;;39.27;23.45;;;;;;;-4.22;100.00;100769.78;1764484;80;21856;-85
2022/03/09 05:22:56;;;;;;;43.05;25.00;;;;;;;-4.21;100.00;100777.82;1765049;80;21042;-83
2022/03/09 05:25:23;;;;;;;39.38;23.52;;;;;;;-4.23;100.00;100785.89;1761785;79;21002;-83
2022/03/09 05:27:51;;;;;;;39.55;22.32;;;;;;;-4.23;100.00;100779.95;1751086;80;21034;-83
2022/03/09 05:30:18;;;;;;;35.65;22.00;;;;;;;-4.26;100.00;100792.27;1741465;80;21092;-82
2022/03/09 05:32:45;;;;;;;42.95;26.73;;;;;;;-4.26;100.00;100792.27;1745456;80;21948;-85
2022/03/09 05:35:12;;;;;;;44.83;25.97;;;;;;;-4.28;100.00;100788.89;1748134;80;21629;-83
2022/03/09 05:37:42;;;;;;;39.08;23.27;;;;;;;-4.26;100.00;100799.07;1742406;80;21049;-83
2022/03/09 05:40:09;;;;;;;40.33;24.23;;;;;;;-4.25;100.00;100800.76;1750115;80;21086;-88
2022/03/09 05:42:39;;;;;;;41.20;25.35;;;;;;;-4.23;100.00;100802.83;1735010;81;21108;-83
2022/03/09 05:45:08;;;;;;;41.15;24.07;;;;;;;-4.22;100.00;100792.66;1748642;80;21237;-83
2022/03/09 05:47:36;;;;;;;40.50;24.70;;;;;;;-4.19;100.00;100805.33;1741051;79;21035;-83
2022/03/09 05:50:06;;;;;;;34.55;19.25;;;;;;;-4.12;100.00;100804.84;1729506;80;21638;-82
2022/03/09 05:52:34;;;;;;;34.13;20.60;;;;;;;-4.02;100.00;100798.80;1741550;80;21050;-81
2022/03/09 05:55:01;;;;;;;42.13;23.05;;;;;;;-3.93;100.00;100803.36;1749983;80;21132;-84
2022/03/09 05:57:29;;;;;;;32.10;17.67;;;;;;;-3.93;100.00;100802.92;1749649;80;21342;-87
2022/03/09 05:59:57;;;;;;;35.25;20.02;;;;;;;-3.96;100.00;100809.30;1749857;81;21042;-83
2022/03/09 06:02:24;;;;;;;42.38;25.62;;;;;;;-3.99;100.00;100811.47;1750591;81;20991;-83
2022/03/09 06:04:51;;;;;;;40.35;23.77;;;;;;;-4.00;100.00;100809.77;1750896;81;21528;-82
2022/03/09 06:07:17;;;;;;;35.17;18.95;;;;;;;-3.99;100.00;100812.73;1750934;80;21522;-82
2022/03/09 06:09:44;;;;;;;35.95;20.97;;;;;;;-3.95;100.00;100804.63;1763076;80;21070;-82
2022/03/09 06:12:13;;;;;;;47.70;25.35;;;;;;;-3.87;100.00;100811.75;1746728;80;22590;-82
2022/03/09 06:14:40;;;;;;;47.03;25.50;;;;;;;-3.74;100.00;100811.61;1757389;81;21343;-84
2022/03/09 06:17:07;;;;;;;36.85;21.15;;;;;;;-3.60;100.00;100811.41;1764300;81;21010;-81
2022/03/09 06:19:34;;;;;;;42.45;23.25;;;;;;;-3.47;100.00;100812.09;1758233;80;21069;-82
2022/03/09 06:22:01;;;;;;;36.30;19.37;;;;;;;-3.54;100.00;100813.45;1734926;81;21251;-79
2022/03/09 06:24:28;;;;;;;37.88;25.05;;;;;;;-3.69;100.00;100818.33;1743307;80;21084;-81
2022/03/09 06:26:55;;;;;;;38.67;25.12;;;;;;;-3.78;100.00;100813.36;1737538;80;21045;-81
2022/03/09 06:29:22;;;;;;;37.78;22.82;;;;;;;-3.86;100.00;100820.23;1748328;80;21072;-80
2022/03/09 06:31:50;;;;;;;34.80;21.42;;;;;;;-3.90;100.00;100825.80;1762936;80;21038;-80
2022/03/09 06:34:18;;;;;;;41.45;25.72;;;;;;;-3.92;100.00;100821.15;1764748;80;22297;-80
2022/03/09 06:36:47;;;;;;;38.40;23.95;;;;;;;-3.93;100.00;100813.55;1764516;81;21046;-79
2022/03/09 06:39:16;;;;;;;37.67;21.90;;;;;;;-3.91;100.00;100810.11;1755042;80;21037;-81
2022/03/09 06:41:46;;;;;;;40.78;23.92;;;;;;;-3.89;100.00;100805.86;1747825;80;21026;-85
2022/03/09 06:44:16;;;;;;;40.00;25.32;;;;;;;-3.86;100.00;100812.61;1745557;80;21078;-81
2022/03/09 06:46:42;;;;;;;38.73;22.98;;;;;;;-3.83;100.00;100811.28;1736888;80;21149;-80
2022/03/09 06:49:09;;;;;;;38.53;24.98;;;;;;;-3.81;100.00;100810.42;1734703;82;21030;-80
2022/03/09 06:51:37;;;;;;;37.70;22.90;;;;;;;-3.77;100.00;100807.41;1755394;80;21596;-80
2022/03/09 06:54:03;;;;;;;41.42;23.77;;;;;;;-3.74;100.00;100814.16;1764868;81;21045;-80
2022/03/09 06:56:31;;;;;;;37.95;22.98;;;;;;;-3.68;100.00;100808.98;1765040;81;21695;-81
2022/03/09 06:58:58;;;;;;;34.92;22.40;;;;;;;-3.65;100.00;100815.31;1765288;81;21819;-81
2022/03/09 07:01:24;;;;;;;39.13;22.98;;;;;;;-3.63;100.00;100814.84;1745258;81;21007;-79
2022/03/09 07:03:51;;;;;;;36.03;22.10;;;;;;;-3.63;100.00;100812.74;1748153;80;21669;-81
2022/03/09 07:06:19;;;;;;;36.53;23.92;;;;;;;-3.67;100.00;100816.59;1741108;80;21545;-80
2022/03/09 07:08:45;;;;;;;39.23;23.27;;;;;;;-3.68;100.00;100810.25;1749505;80;21088;-80
2022/03/09 07:11:12;;;;;;;33.58;20.65;;;;;;;-3.68;100.00;100815.34;1750610;80;21918;-80
2022/03/09 07:13:41;;;;;;;38.45;22.25;;;;;;;-3.68;100.00;100817.45;1731879;80;21088;-80
2022/03/09 07:16:10;;;;;;;35.15;21.48;;;;;;;-3.70;100.00;100817.06;1737890;80;20990;-80
2022/03/09 07:18:37;;;;;;;37.48;22.93;;;;;;;-3.73;100.00;100821.77;1748635;80;21163;-81
2022/03/09 07:21:06;;;;;;;35.10;22.07;;;;;;;-3.75;100.00;100823.92;1742465;80;21058;-80
2022/03/09 07:23:35;;;;;;;39.63;23.00;;;;;;;-3.74;100.00;100819.25;1740489;80;23172;-81
2022/03/09 07:26:02;;;;;;;35.70;23.15;;;;;;;-3.69;100.00;100816.20;1735379;80;21050;-81
2022/03/09 07:28:34;;;;;;;38.40;23.47;;;;;;;-3.59;100.00;100813.09;1744480;81;21042;-81
2022/03/09 07:31:01;;;;;;;31.57;20.12;;;;;;;-3.52;100.00;100819.79;1748367;81;21088;-81
2022/03/09 07:33:29;;;;;;;36.95;23.70;;;;;;;-3.44;100.00;100815.88;1733087;81;21247;-84
2022/03/09 07:35:56;;;;;;;36.58;24.50;;;;;;;-3.34;100.00;100814.89;1749196;81;21242;-81
2022/03/09 07:38:24;;;;;;;31.60;20.23;;;;;;;-3.26;100.00;100814.36;1748054;80;21046;-81
2022/03/09 07:40:51;;;;;;;35.95;23.50;;;;;;;-3.21;100.00;100816.84;1750793;80;21096;-81
2022/03/09 07:43:18;;;;;;;38.40;22.20;;;;;;;-3.19;100.00;100817.22;1749493;80;21049;-81
2022/03/09 07:45:46;;;;;;;35.65;22.55;;;;;;;-3.21;100.00;100808.75;1741957;80;22260;-80
2022/03/09 07:48:14;;;;;;;34.03;22.25;;;;;;;-3.20;100.00;100814.67;1741970;80;21781;-81
2022/03/09 07:50:41;;;;;;;36.85;23.07;;;;;;;-3.21;100.00;100813.84;1739278;80;21614;-83
2022/03/09 07:53:08;;;;;;;36.90;19.62;;;;;;;-3.21;100.00;100811.30;1749373;79;21080;-83
2022/03/09 07:55:35;;;;;;;38.60;23.75;;;;;;;-3.20;100.00;100807.89;1750699;80;21691;-83
2022/03/09 07:58:02;;;;;;;36.85;20.77;;;;;;;-3.20;100.00;100811.71;1748654;80;21027;-84
2022/03/09 08:00:29;;;;;;;34.40;19.95;;;;;;;-3.22;100.00;100807.06;1732673;80;21243;-82
2022/03/09 08:02:56;;;;;;;37.25;22.98;;;;;;;-3.31;100.00;100813.56;1734146;80;21085;-83
2022/03/09 08:05:24;;;;;;;30.23;18.17;;;;;;;-3.34;100.00;100816.17;1731833;81;21085;-82
2022/03/09 08:07:51;;;;;;;36.25;22.75;;;;;;;-3.34;100.00;100814.89;1780280;79;21023;-83
2022/03/09 08:10:19;;;;;;;33.25;22.37;;;;;;;-3.31;100.00;100816.11;1772823;79;21008;-83
2022/03/09 08:12:47;;;;;;;26.37;13.45;;;;;;;-3.28;100.00;100817.34;1786260;79;21221;-81
2022/03/09 08:15:14;;;;;;;27.75;17.65;;;;;;;-3.23;100.00;100816.84;1722242;81;21080;-80
2022/03/09 08:17:43;;;;;;;26.70;15.40;;;;;;;-3.18;100.00;100814.23;1770113;79;21497;-81
2022/03/09 08:20:12;;;;;;;38.23;22.85;;;;;;;-3.14;100.00;100806.96;1778044;78;21305;-79
2022/03/09 08:22:42;;;;;;;32.75;21.30;;;;;;;-3.06;100.00;100813.20;1772719;78;21577;-80
2022/03/09 08:25:10;;;;;;;30.15;18.27;;;;;;;-3.03;100.00;100811.89;1786208;78;22538;-81
2022/03/09 08:27:37;;;;;;;36.70;22.60;;;;;;;-2.98;100.00;100806.27;1776325;78;21073;-80
2022/03/09 08:30:05;;;;;;;38.65;23.57;;;;;;;-2.93;100.00;100808.34;1768479;79;21077;-82
2022/03/09 08:32:32;;;;;;;31.68;20.62;;;;;;;-2.91;100.00;100816.78;1767285;78;21653;-80
2022/03/09 08:35:00;;;;;;;36.30;19.35;;;;;;;-2.94;100.00;100808.34;1778182;80;21111;-81
2022/03/09 08:37:27;;;;;;;35.78;23.45;;;;;;;-2.95;100.00;100813.89;1757911;78;21278;-82
2022/03/09 08:39:54;;;;;;;35.25;22.02;;;;;;;-2.92;100.00;100811.27;1745144;80;21044;-82
2022/03/09 08:42:21;;;;;;;36.58;22.45;;;;;;;-2.91;100.00;100815.50;1754642;80;21550;-81
2022/03/09 08:44:48;;;;;;;37.28;22.82;;;;;;;-2.91;100.00;100820.59;1760527;80;21103;-80
2022/03/09 08:47:15;;;;;;;38.58;24.70;;;;;;;-2.92;100.00;100816.37;1784907;78;21044;-80
2022/03/09 08:49:45;;;;;;;36.75;23.35;;;;;;;-2.94;100.00;100816.84;1769722;80;21357;-82
2022/03/09 08:52:12;;;;;;;36.38;23.15;;;;;;;-2.95;100.00;100813.89;1782645;80;20963;-80
2022/03/09 08:54:41;;;;;;;45.52;26.40;;;;;;;-2.92;100.00;100818.09;1769072;78;21112;-82
2022/03/09 08:57:10;;;;;;;43.90;27.37;;;;;;;-2.93;100.00;100815.12;1779342;79;21104;-82
2022/03/09 08:59:37;;;;;;;31.80;18.73;;;;;;;-2.96;100.00;100814.75;1735555;80;21472;-81
2022/03/09 09:02:04;;;;;;;40.88;23.98;;;;;;;-2.98;100.00;100827.11;1780456;80;21138;-81
2022/03/09 09:04:32;;;;;;;38.48;24.72;;;;;;;-3.01;100.00;100812.72;1782802;79;21029;-81
2022/03/09 09:07:01;;;;;;;35.40;23.60;;;;;;;-3.02;100.00;100824.59;1747060;80;21017;-84
2022/03/09 09:09:28;;;;;;;34.55;22.15;;;;;;;-3.02;100.00;100825.05;1777233;79;21005;-81
2022/03/09 09:11:55;;;;;;;46.73;29.42;;;;;;;-3.05;100.00;100826.35;1777158;80;21139;-83
2022/03/09 09:14:22;;;;;;;45.20;26.62;;;;;;;-3.05;100.00;100838.67;1777002;79;21321;-83
2022/03/09 09:16:50;;;;;;;53.58;33.28;;;;;;;-3.03;100.00;100825.45;1744769;80;21078;-82
2022/03/09 09:19:17;;;;;;;46.08;27.32;;;;;;;-3.00;100.00;100828.38;1754253;79;21637;-80
2022/03/09 09:21:47;;;;;;;50.33;31.80;;;;;;;-2.99;100.00;100826.70;1756020;80;21035;-81
2022/03/09 09:24:15;;;;;;;44.98;26.77;;;;;;;-3.02;100.00;100833.96;1755923;80;21089;-82
2022/03/09 09:26:42;;;;;;;38.80;24.95;;;;;;;-2.98;100.00;100830.48;1756024;80;21244;-80
2022/03/09 09:29:09;;;;;;;42.67;26.35;;;;;;;-2.92;100.00;100835.92;1800284;79;22348;-80
2022/03/09 09:31:37;;;;;;;40.50;26.55;;;;;;;-2.91;100.00;100835.89;1770050;78;21093;-82
2022/03/09 09:34:05;;;;;;;39.08;25.17;;;;;;;-2.87;100.00;100834.14;1779574;79;21012;-81
2022/03/09 09:36:32;;;;;;;41.65;24.87;;;;;;;-2.84;100.00;100833.27;1778893;79;21043;-80
2022/03/09 09:39:00;;;;;;;38.45;24.37;;;;;;;-2.82;100.00;100828.97;1771150;78;21161;-80
2022/03/09 09:41:29;;;;;;;41.48;25.80;;;;;;;-2.83;100.00;100826.86;1778531;79;20946;-81
2022/03/09 09:43:57;;;;;;;41.65;25.25;;;;;;;-2.82;100.00;100832.38;1782205;79;21104;-81
2022/03/09 09:46:24;;;;;;;39.30;25.15;;;;;;;-2.81;100.00;100834.48;1782735;79;20970;-80
2022/03/09 09:48:51;;;;;;;41.45;25.10;;;;;;;-2.80;100.00;100825.97;1782160;79;21076;-80
2022/03/09 09:51:18;;;;;;;38.60;25.27;;;;;;;-2.81;100.00;100830.23;1781666;79;21883;-80
2022/03/09 09:53:46;;;;;;;38.95;25.45;;;;;;;-2.83;100.00;100832.38;1782096;79;21518;-80
2022/03/09 09:56:13;;;;;;;37.95;25.77;;;;;;;-2.84;100.00;100832.83;1782142;80;21052;-80
2022/03/09 09:58:45;;;;;;;36.35;22.55;;;;;;;-2.83;100.00;100828.55;1781974;79;20997;-80
2022/03/09 10:01:12;;;;;;;40.10;26.52;;;;;;;-2.81;100.00;100829.38;1782005;79;20977;-80
2022/03/09 10:03:39;;;;;;;46.02;30.55;;;;;;;-2.78;100.00;100825.52;1782157;79;21287;-81
2022/03/09 10:06:06;;;;;;;39.98;25.50;;;;;;;-2.76;100.00;100820.80;1780421;79;21032;-79
2022/03/09 10:08:33;;;;;;;38.85;24.90;;;;;;;-2.72;100.00;100822.86;1739726;79;21003;-80
2022/03/09 10:11:03;;;;;;;33.65;22.48;;;;;;;-2.66;100.00;100824.47;1775102;79;21518;-80
2022/03/09 10:13:40;;;;;;;37.50;24.63;;;;;;;-2.59;100.00;100823.05;1772667;79;21017;-84
2022/03/09 10:16:20;;;;;;;39.75;24.55;;;;;;;-2.51;100.00;100822.08;1773883;79;21561;-80
2022/03/09 10:18:54;;;;;;;37.05;23.98;;;;;;;-2.47;100.00;100817.34;1741847;79;21009;-82
2022/03/09 10:21:28;;;;;;;42.70;28.35;;;;;;;-2.43;100.00;100826.19;1773601;79;21494;-80
2022/03/09 10:24:06;;;;;;;42.73;26.48;;;;;;;-2.42;100.00;100827.88;1773829;79;20982;-80
2022/03/09 10:26:40;;;;;;;53.15;33.38;;;;;;;-2.36;100.00;100827.34;1773636;79;21565;-79
2022/03/09 10:29:14;;;;;;;42.90;28.05;;;;;;;-2.33;100.00;100825.58;1768114;80;21306;-81
2022/03/09 10:31:45;;;;;;;37.67;25.62;;;;;;;-2.29;100.00;100828.50;1770169;79;21022;-83
2022/03/09 10:34:15;;;;;;;;;;;;;;;-2.27;100.00;100828.46;1774835;79;21048;-79
2022/03/09 10:37:01;;;;;;;37.55;24.25;;;;;;;-2.25;100.00;100828.84;1768263;79;20133;-81
2022/03/09 10:39:36;;;;;;;37.50;24.23;;;;;;;-2.24;100.00;100826.70;1743410;80;21033;-81
2022/03/09 10:42:24;;;;;;;36.55;23.20;;;;;;;-2.21;100.00;100828.34;1774770;80;21440;-82
2022/03/09 10:44:52;;;;;;;38.60;25.30;;;;;;;-2.19;100.00;100833.41;1741702;80;20987;-81
2022/03/09 10:47:45;;;;;;;38.28;25.05;;;;;;;-2.12;100.00;100829.87;1775136;79;21037;-81
2022/03/09 10:50:19;;;;;;;34.73;23.83;;;;;;;-2.03;100.00;100825.87;1775716;79;21009;-82
2022/03/09 10:52:58;;;;;;;39.20;25.37;;;;;;;-1.89;100.00;100831.16;1775658;79;21506;-80
2022/03/09 10:55:37;;;;;;;42.05;26.00;;;;;;;-1.86;100.00;100830.66;1774333;79;21237;-81
2022/03/09 10:58:22;;;;;;;41.80;28.25;;;;;;;-1.80;100.00;100829.67;1773174;79;21016;-80
2022/03/09 11:00:53;;;;;;;40.78;27.42;;;;;;;-1.74;100.00;100830.84;1774914;79;21052;-81
2022/03/09 11:03:27;;;;;;;43.55;28.05;;;;;;;-1.67;100.00;100835.38;1768565;79;21073;-81
2022/03/09 11:06:02;;;;;;;42.70;28.73;;;;;;;-1.65;100.00;100834.49;1771972;79;21041;-82
2022/03/09 11:08:34;;;;;;;42.73;28.27;;;;;;;-1.64;100.00;100831.04;1775627;78;21233;-81